Time;durP1;ratioP1;P1;durP2;ratioP2;P2;SDS_P1;SDS_P2;PMS_P1;PMS_P2;Temp;Humidity;BMP_temperature;BMP_pressure;BME280_temperature;BME280_humidity;BME280_pressure;Samples;Min_cycle;Max_cycle;Signal;HPM_P1;HPM_P2
2022/08/21 00:01:19;;;;;;;71.05;53.40;;;18.50;53.30;;;;;;5015215;28;20022;-81
2022/08/21 00:03:45;;;;;;;73.88;54.78;;;18.50;53.60;;;;;;5015268;28;20518;-82
2022/08/21 00:06:11;;;;;;;70.68;54.72;;;18.50;53.40;;;;;;4997036;28;20053;-81
2022/08/21 00:08:37;;;;;;;70.57;54.80;;;18.50;53.40;;;;;;4983057;28;20030;-81
2022/08/21 00:11:05;;;;;;;73.15;56.15;;;18.50;53.40;;;;;;5014408;28;20053;-81
2022/08/21 00:13:33;;;;;;;73.80;56.88;;;18.50;53.30;;;;;;4996748;28;20021;-80
2022/08/21 00:16:00;;;;;;;67.72;56.15;;;18.50;53.20;;;;;;5014641;28;20458;-80
2022/08/21 00:18:26;;;;;;;75.00;55.60;;;18.50;53.20;;;;;;4996452;28;20077;-80
2022/08/21 00:20:52;;;;;;;69.55;55.40;;;18.50;53.10;;;;;;5014456;28;20025;-81
2022/08/21 00:23:18;;;;;;;67.60;56.40;;;18.50;53.20;;;;;;5014154;28;20027;-80
2022/08/21 00:25:45;;;;;;;69.93;54.13;;;18.50;53.30;;;;;;5002683;28;20027;-80
2022/08/21 00:28:12;;;;;;;69.60;54.70;;;18.40;53.40;;;;;;5012157;28;20053;-80
2022/08/21 00:30:38;;;;;;;64.75;53.55;;;18.40;53.40;;;;;;4997347;28;20030;-81
2022/08/21 00:33:06;;;;;;;76.57;56.00;;;18.40;53.40;;;;;;5000289;28;20391;-80
2022/08/21 00:35:34;;;;;;;75.07;54.88;;;18.30;53.20;;;;;;4995821;28;20100;-81
2022/08/21 00:38:02;;;;;;;74.50;54.75;;;18.30;53.50;;;;;;5013757;28;20060;-80
2022/08/21 00:40:35;;;;;;;73.13;54.47;;;18.20;53.40;;;;;;5013764;28;20156;-81
2022/08/21 00:43:03;;;;;;;73.63;55.15;;;18.20;53.60;;;;;;5013750;28;20057;-81
2022/08/21 00:45:31;;;;;;;71.45;54.97;;;18.10;53.70;;;;;;4982634;28;20046;-80
2022/08/21 00:47:57;;;;;;;71.70;55.58;;;18.10;53.80;;;;;;5013239;28;20092;-80
2022/08/21 00:50:28;;;;;;;73.53;56.72;;;18.10;53.90;;;;;;5013834;28;20022;-80
2022/08/21 00:52:55;;;;;;;75.25;55.15;;;18.10;53.90;;;;;;4996232;28;20022;-81
2022/08/21 00:55:23;;;;;;;71.40;56.72;;;18.00;54.00;;;;;;5014337;28;20017;-81
2022/08/21 00:57:52;;;;;;;70.13;53.80;;;18.00;54.00;;;;;;4997000;28;20030;-80
2022/08/21 01:00:27;;;;;;;64.57;52.47;;;18.00;54.10;;;;;;5015504;28;20101;-80
2022/08/21 01:02:53;;;;;;;70.45;53.20;;;18.00;54.10;;;;;;5015096;28;20068;-81
2022/08/21 01:05:19;;;;;;;70.38;51.47;;;17.90;54.10;;;;;;4994859;28;20454;-81
2022/08/21 01:07:46;;;;;;;63.92;51.80;;;17.90;54.30;;;;;;5012534;28;20030;-79
2022/08/21 01:10:12;;;;;;;59.72;49.92;;;17.90;54.20;;;;;;5013275;28;20022;-82
2022/08/21 01:12:39;;;;;;;68.43;50.50;;;17.90;54.40;;;;;;5013175;28;20018;-81
2022/08/21 01:15:07;;;;;;;65.57;49.65;;;17.80;54.20;;;;;;5013131;28;20038;-81
2022/08/21 01:17:34;;;;;;;58.55;47.97;;;17.80;54.50;;;;;;5001766;28;20018;-81
2022/08/21 01:20:01;;;;;;;62.78;49.00;;;17.80;54.40;;;;;;4996907;28;20434;-81
2022/08/21 01:22:27;;;;;;;63.55;49.50;;;17.80;54.40;;;;;;5012464;28;20026;-81
2022/08/21 01:24:53;;;;;;;62.40;44.77;;;17.70;54.40;;;;;;5008096;28;20061;-81
2022/08/21 01:27:19;;;;;;;63.20;48.20;;;17.70;54.70;;;;;;5004617;28;20056;-81
2022/08/21 01:29:58;;;;;;;62.80;45.80;;;17.70;54.60;;;;;;5013051;28;20034;-80
2022/08/21 01:32:25;;;;;;;61.22;44.90;;;17.70;54.70;;;;;;5013146;28;20044;-81
2022/08/21 01:34:52;;;;;;;62.67;44.70;;;17.70;54.70;;;;;;4995185;28;20072;-79
2022/08/21 01:37:20;;;;;;;63.33;44.28;;;17.70;54.70;;;;;;5011903;28;20287;-82
2022/08/21 01:39:46;;;;;;;62.33;45.38;;;17.70;54.60;;;;;;5011996;28;20041;-81
2022/08/21 01:42:12;;;;;;;60.75;45.60;;;17.70;54.80;;;;;;5012961;28;20079;-79
2022/08/21 01:44:38;;;;;;;65.05;46.08;;;17.60;54.70;;;;;;5012739;28;20058;-80
2022/08/21 01:47:07;;;;;;;55.67;42.85;;;17.60;54.90;;;;;;5012940;28;20067;-80
2022/08/21 01:49:33;;;;;;;65.10;43.47;;;17.50;55.10;;;;;;5012730;28;20022;-80
2022/08/21 01:51:59;;;;;;;60.03;45.60;;;17.50;55.00;;;;;;4998801;28;20010;-78
2022/08/21 01:54:25;;;;;;;51.78;42.53;;;17.50;55.00;;;;;;5012411;28;20435;-81
2022/08/21 01:56:53;;;;;;;54.78;43.30;;;17.50;55.10;;;;;;5020885;28;20033;-81
2022/08/21 01:59:21;;;;;;;52.28;42.63;;;17.50;55.10;;;;;;5024617;28;20022;-80
2022/08/21 02:01:47;;;;;;;51.45;41.53;;;17.40;55.20;;;;;;5024338;28;20562;-79
2022/08/21 02:04:12;;;;;;;57.42;42.03;;;17.50;55.40;;;;;;5015194;28;20053;-80
2022/08/21 02:06:39;;;;;;;57.08;41.63;;;17.40;55.30;;;;;;5014141;28;20069;-79
2022/08/21 02:09:07;;;;;;;56.22;41.20;;;17.40;55.30;;;;;;5012545;28;20026;-80
2022/08/21 02:11:32;;;;;;;49.30;41.25;;;17.40;55.40;;;;;;5012266;28;20052;-80
2022/08/21 02:13:59;;;;;;;57.00;43.15;;;17.40;55.30;;;;;;5011205;28;20514;-81
2022/08/21 02:16:24;;;;;;;54.53;39.97;;;17.40;55.50;;;;;;5012396;28;20388;-81
2022/08/21 02:18:51;;;;;;;61.28;42.83;;;17.30;55.60;;;;;;4994150;28;20038;-81
2022/08/21 02:21:17;;;;;;;55.00;41.28;;;17.30;55.70;;;;;;5012571;28;20098;-80
2022/08/21 02:23:43;;;;;;;49.67;39.50;;;17.30;55.70;;;;;;5012008;28;20109;-80
2022/08/21 02:26:09;;;;;;;54.90;40.75;;;17.30;56.50;;;;;;4997277;28;20351;-80
2022/08/21 02:28:36;;;;;;;51.42;40.05;;;17.20;55.90;;;;;;5012161;28;20140;-79
2022/08/21 02:31:02;;;;;;;48.60;40.37;;;17.20;56.60;;;;;;4993644;28;20025;-79
2022/08/21 02:33:28;;;;;;;49.03;38.08;;;17.20;56.10;;;;;;5012546;28;20387;-80
2022/08/21 02:35:56;;;;;;;51.05;39.42;;;17.20;56.10;;;;;;5012156;28;20026;-79
2022/08/21 02:38:27;;;;;;;47.60;37.53;;;17.20;56.00;;;;;;5012815;28;20018;-80
2022/08/21 02:40:54;;;;;;;53.38;38.78;;;17.30;56.20;;;;;;4995833;28;20503;-80
2022/08/21 02:43:23;;;;;;;53.05;38.67;;;17.30;56.10;;;;;;4998731;28;20044;-81
2022/08/21 02:45:49;;;;;;;46.55;39.20;;;17.30;56.00;;;;;;5011072;28;20061;-80
2022/08/21 02:48:18;;;;;;;58.78;39.88;;;17.30;55.90;;;;;;4994180;28;20084;-80
2022/08/21 02:50:47;;;;;;;50.67;39.45;;;17.30;55.80;;;;;;5012144;28;20462;-81
2022/08/21 02:53:16;;;;;;;48.63;38.55;;;17.40;55.80;;;;;;5011741;28;20058;-80
2022/08/21 02:55:44;;;;;;;56.63;39.35;;;17.40;55.80;;;;;;5011889;28;20061;-80
2022/08/21 02:58:12;;;;;;;43.92;38.40;;;17.50;55.60;;;;;;5011934;28;20033;-80
2022/08/21 03:00:39;;;;;;;52.58;40.20;;;17.50;55.90;;;;;;5012194;28;20030;-81
2022/08/21 03:03:05;;;;;;;50.38;39.92;;;17.50;55.70;;;;;;4994214;28;20026;-81
2022/08/21 03:05:32;;;;;;;56.15;38.17;;;17.60;55.50;;;;;;4993220;28;20048;-80
2022/08/21 03:08:00;;;;;;;47.17;39.67;;;17.60;55.60;;;;;;5010530;28;20029;-80
2022/08/21 03:10:27;;;;;;;54.13;39.45;;;17.70;55.50;;;;;;5014726;28;20455;-79
2022/08/21 03:12:54;;;;;;;53.40;39.05;;;17.70;55.50;;;;;;5013053;28;20022;-80
2022/08/21 03:15:22;;;;;;;49.08;38.88;;;17.80;55.30;;;;;;5011767;28;20029;-79
2022/08/21 03:17:48;;;;;;;47.05;38.28;;;17.90;54.90;;;;;;5011907;28;20065;-81
2022/08/21 03:20:16;;;;;;;51.08;40.72;;;17.90;55.10;;;;;;5010734;28;20494;-81
2022/08/21 03:22:42;;;;;;;54.83;38.88;;;17.90;55.10;;;;;;4993964;28;20062;-81
2022/08/21 03:25:10;;;;;;;53.05;39.58;;;18.00;54.70;;;;;;5002562;28;20031;-82
2022/08/21 03:27:36;;;;;;;48.60;39.75;;;18.00;54.60;;;;;;5007523;28;20089;-79
2022/08/21 03:30:05;;;;;;;51.57;40.37;;;18.10;54.30;;;;;;5011674;28;20018;-80
2022/08/21 03:32:31;;;;;;;50.78;40.40;;;18.20;54.50;;;;;;5015223;28;20144;-79
2022/08/21 03:34:57;;;;;;;57.58;41.42;;;18.30;54.40;;;;;;5015490;28;20018;-80
2022/08/21 03:37:24;;;;;;;48.05;41.00;;;18.30;54.00;;;;;;5013017;28;20025;-80
2022/08/21 03:39:50;;;;;;;50.63;41.45;;;18.40;53.90;;;;;;5014890;28;20026;-79
2022/08/21 03:42:16;;;;;;;57.20;41.97;;;18.50;53.80;;;;;;5014857;28;20022;-80
2022/08/21 03:44:41;;;;;;;54.97;41.47;;;18.50;53.70;;;;;;5014597;28;20069;-79
2022/08/21 03:47:07;;;;;;;55.80;42.47;;;18.50;53.80;;;;;;5013841;28;20018;-79
2022/08/21 03:49:33;;;;;;;62.05;43.85;;;18.50;53.60;;;;;;5014910;28;20028;-78
2022/08/21 03:52:00;;;;;;;51.75;41.45;;;18.60;53.60;;;;;;4997482;28;20029;-80
2022/08/21 03:54:26;;;;;;;49.00;42.60;;;18.70;53.40;;;;;;5011001;28;20101;-80
2022/08/21 03:56:51;;;;;;;57.53;42.72;;;18.80;53.00;;;;;;5001028;28;20026;-79
2022/08/21 03:59:17;;;;;;;59.17;44.15;;;18.80;53.00;;;;;;5004347;28;20134;-80
2022/08/21 04:01:58;;;;;;;52.97;41.47;;;18.90;53.00;;;;;;4993432;28;20484;-79
2022/08/21 04:04:25;;;;;;;64.57;44.05;;;18.90;52.90;;;;;;5004300;28;20038;-79
2022/08/21 04:06:51;;;;;;;55.15;43.80;;;19.10;52.90;;;;;;5011631;28;20026;-80
2022/08/21 04:09:17;;;;;;;56.97;43.80;;;19.10;53.00;;;;;;5015447;28;20080;-80
2022/08/21 04:11:45;;;;;;;55.77;42.33;;;19.20;52.80;;;;;;5001097;28;20026;-80
2022/08/21 04:14:11;;;;;;;58.80;43.83;;;19.20;53.00;;;;;;5019038;28;20032;-79
2022/08/21 04:16:37;;;;;;;58.17;44.35;;;19.30;52.40;;;;;;5021925;28;20018;-81
2022/08/21 04:19:03;;;;;;;57.28;42.90;;;19.30;51.90;;;;;;5023425;28;20018;-79
2022/08/21 04:21:30;;;;;;;57.97;44.55;;;19.40;51.70;;;;;;5016625;28;20030;-79
2022/08/21 04:23:56;;;;;;;55.03;42.08;;;19.50;52.40;;;;;;5015779;28;20036;-80
2022/08/21 04:26:22;;;;;;;58.63;45.47;;;19.50;51.60;;;;;;5006973;28;20033;-80
2022/08/21 04:28:48;;;;;;;61.40;44.70;;;19.60;51.30;;;;;;5014516;28;20018;-80
2022/08/21 04:31:14;;;;;;;57.25;45.15;;;19.70;51.30;;;;;;5014124;28;20026;-80
2022/08/21 04:33:40;;;;;;;61.53;46.13;;;19.80;51.10;;;;;;5014354;28;20051;-81
2022/08/21 04:36:06;;;;;;;59.80;44.05;;;19.80;50.80;;;;;;4996309;28;20026;-79
2022/08/21 04:38:33;;;;;;;62.75;46.38;;;19.80;50.60;;;;;;5006580;28;20499;-81
2022/08/21 04:40:59;;;;;;;62.08;45.33;;;19.80;51.30;;;;;;5006976;28;20036;-80
2022/08/21 04:43:25;;;;;;;58.88;44.88;;;19.90;50.60;;;;;;5013689;28;20210;-81
2022/08/21 04:45:52;;;;;;;55.67;43.92;;;19.90;50.60;;;;;;5013649;28;20060;-80
2022/08/21 04:48:21;;;;;;;56.47;44.67;;;20.10;50.30;;;;;;4984270;28;20068;-80
2022/08/21 04:51:10;;;;;;;59.55;46.42;;;20.40;50.00;;;;;;5010222;28;20030;-81
2022/08/21 04:53:50;;;;;;;56.13;46.10;;;20.60;49.20;;;;;;4985482;28;20053;-80
2022/08/21 04:56:26;;;;;;;61.63;47.50;;;21.10;48.60;;;;;;5013514;28;20030;-79
2022/08/21 04:58:59;;;;;;;56.63;47.05;;;21.50;47.80;;;;;;5012738;28;20048;-79
2022/08/21 05:01:28;;;;;;;56.80;47.15;;;22.10;46.70;;;;;;5013364;28;20072;-80
2022/08/21 05:03:59;;;;;;;64.38;49.67;;;22.80;45.40;;;;;;5013306;28;20038;-80
2022/08/21 05:06:28;;;;;;;65.88;50.45;;;23.40;44.60;;;;;;5013348;28;20022;-80
2022/08/21 05:08:56;;;;;;;64.50;49.65;;;24.00;43.40;;;;;;4995842;28;20080;-81
2022/08/21 05:11:22;;;;;;;68.95;50.15;;;24.60;42.30;;;;;;5013195;28;20026;-82
2022/08/21 05:13:49;;;;;;;61.20;49.90;;;25.40;41.50;;;;;;5013705;28;20071;-81
2022/08/21 05:16:15;;;;;;;60.53;49.38;;;25.60;40.30;;;;;;5012616;28;20122;-81
2022/08/21 05:18:42;;;;;;;59.33;47.05;;;26.10;40.10;;;;;;5013380;28;20030;-80
2022/08/21 05:21:09;;;;;;;61.58;48.53;;;26.70;39.60;;;;;;5013176;28;20029;-79
2022/08/21 05:23:35;;;;;;;60.85;51.42;;;27.30;38.80;;;;;;5013102;28;20072;-81
2022/08/21 05:26:01;;;;;;;56.92;48.72;;;27.70;37.60;;;;;;5004369;28;20057;-82
2022/08/21 05:28:27;;;;;;;54.63;48.65;;;28.10;37.50;;;;;;5013052;28;20033;-81
2022/08/21 05:30:53;;;;;;;54.47;47.60;;;28.40;37.00;;;;;;5011939;28;20033;-79
2022/08/21 05:33:19;;;;;;;55.03;44.42;;;28.70;36.70;;;;;;5008240;28;20045;-79
2022/08/21 05:35:45;;;;;;;53.47;45.60;;;29.00;36.20;;;;;;5010893;28;20025;-78
2022/08/21 05:38:11;;;;;;;51.45;45.17;;;29.40;35.60;;;;;;5012869;28;20282;-79
2022/08/21 05:40:37;;;;;;;49.50;44.13;;;29.80;35.10;;;;;;5012773;28;20028;-80
2022/08/21 05:43:03;;;;;;;55.88;45.03;;;30.20;34.80;;;;;;5012518;28;20616;-80
2022/08/21 05:45:31;;;;;;;62.33;47.63;;;30.80;34.50;;;;;;5012928;28;20038;-80
2022/08/21 05:47:57;;;;;;;55.92;48.05;;;31.30;33.60;;;;;;5007275;28;20022;-82
2022/08/21 05:50:23;;;;;;;51.47;45.90;;;31.70;33.10;;;;;;5013266;28;20022;-81
2022/08/21 05:52:49;;;;;;;54.53;48.33;;;;;;;;;;5012311;28;20021;-80
2022/08/21 05:55:15;;;;;;;53.73;47.83;;;32.50;32.70;;;;;;5012285;28;20037;-81
2022/08/21 05:57:42;;;;;;;51.67;46.03;;;;;;;;;;5012655;28;20108;-81
2022/08/21 06:00:12;;;;;;;56.30;45.63;;;32.90;31.90;;;;;;5012924;28;20069;-80
2022/08/21 06:02:39;;;;;;;56.30;47.58;;;33.40;30.90;;;;;;5013317;28;20028;-81
2022/08/21 06:05:05;;;;;;;52.80;45.45;;;34.00;30.90;;;;;;5011646;28;20072;-80
2022/08/21 06:07:31;;;;;;;59.67;48.27;;;34.20;30.60;;;;;;5012551;28;20030;-81
2022/08/21 06:09:57;;;;;;;58.73;46.00;;;34.40;30.10;;;;;;5012309;28;20022;-81
2022/08/21 06:12:23;;;;;;;61.70;44.27;;;34.70;30.50;;;;;;5013359;28;20076;-82
2022/08/21 06:14:50;;;;;;;55.27;45.83;;;35.10;30.00;;;;;;5012717;28;20021;-82
2022/08/21 06:17:16;;;;;;;61.85;45.78;;;35.50;29.90;;;;;;5012209;28;20060;-81
2022/08/21 06:19:42;;;;;;;62.50;46.22;;;35.50;29.40;;;;;;5011895;28;20025;-81
2022/08/21 06:22:08;;;;;;;58.63;45.67;;;34.90;29.70;;;;;;5011324;28;20030;-82
2022/08/21 06:24:34;;;;;;;58.42;45.72;;;34.80;29.50;;;;;;5007749;28;20023;-82
2022/08/21 06:27:05;;;;;;;54.03;43.37;;;34.90;29.70;;;;;;5002981;28;20064;-79
2022/08/21 06:29:32;;;;;;;51.35;42.55;;;34.90;29.50;;;;;;5014124;28;20030;-80
2022/08/21 06:31:57;;;;;;;50.25;40.90;;;34.80;29.70;;;;;;5005477;28;20559;-81
2022/08/21 06:34:23;;;;;;;47.77;42.43;;;35.00;29.80;;;;;;5022049;28;20077;-80
2022/08/21 06:36:49;;;;;;;53.17;43.27;;;35.50;30.30;;;;;;5016312;28;20101;-79
2022/08/21 06:39:15;;;;;;;63.73;46.30;;;35.80;29.20;;;;;;5012829;28;20042;-80
2022/08/21 06:41:41;;;;;;;53.23;47.47;;;36.20;29.00;;;;;;5010267;28;20113;-79
2022/08/21 06:44:06;;;;;;;57.70;45.97;;;36.50;28.80;;;;;;5000834;28;20041;-79
2022/08/21 06:46:33;;;;;;;56.43;47.17;;;;;;;;;;5009390;28;20030;-80
2022/08/21 06:48:59;;;;;;;55.40;47.13;;;36.80;28.80;;;;;;5011985;28;20022;-80
2022/08/21 06:51:25;;;;;;;57.78;46.08;;;37.60;28.30;;;;;;5011985;28;20057;-79
2022/08/21 06:53:52;;;;;;;58.22;44.45;;;37.70;28.10;;;;;;5012250;28;20048;-80
2022/08/21 06:56:18;;;;;;;56.83;43.33;;;37.70;27.90;;;;;;5011931;28;20097;-80
2022/08/21 06:58:44;;;;;;;53.55;45.67;;;37.80;27.80;;;;;;5011857;28;20372;-79
2022/08/21 07:01:10;;;;;;;53.22;45.28;;;38.10;27.90;;;;;;4993728;28;20072;-81
2022/08/21 07:03:39;;;;;;;56.35;46.00;;;38.40;27.60;;;;;;5011388;28;20410;-80
2022/08/21 07:06:06;;;;;;;52.30;43.03;;;38.40;27.40;;;;;;5013008;28;20030;-81
2022/08/21 07:08:32;;;;;;;47.35;40.88;;;38.40;27.60;;;;;;5015429;28;20022;-80
2022/08/21 07:11:00;;;;;;;49.38;41.03;;;38.70;27.40;;;;;;5015417;28;20101;-79
2022/08/21 07:13:27;;;;;;;46.83;38.40;;;38.50;27.20;;;;;;5014376;28;20116;-82
2022/08/21 07:15:53;;;;;;;44.67;37.60;;;38.60;27.90;;;;;;4997615;28;20030;-79
2022/08/21 07:18:19;;;;;;;50.03;37.85;;;39.00;27.00;;;;;;5015344;28;20030;-79
2022/08/21 07:20:45;;;;;;;;;;;;;;;;;;5015578;28;20172;-81
2022/08/21 07:23:13;;;;;;;44.00;35.15;;;;;;;;;;5015254;28;19956;-81
2022/08/21 07:25:39;;;;;;;47.95;34.20;;;;;;;;;;4997409;28;20123;-80
2022/08/21 07:28:06;;;;;;;43.38;34.97;;;;;;;;;;5014899;28;20546;-80
2022/08/21 07:30:32;;;;;;;43.30;34.50;;;;;;;;;;5009810;28;20026;-80
2022/08/21 07:32:58;;;;;;;38.55;33.25;;;39.80;26.50;;;;;;5012901;28;20018;-81
2022/08/21 07:35:23;;;;;;;41.70;32.90;;;40.20;26.00;;;;;;5015108;28;20092;-81
2022/08/21 07:37:49;;;;;;;38.88;33.70;;;40.20;26.10;;;;;;5014822;28;20018;-81
2022/08/21 07:40:16;;;;;;;42.13;34.72;;;40.30;26.10;;;;;;5014729;28;20069;-80
2022/08/21 07:42:49;;;;;;;40.60;35.15;;;40.10;26.30;;;;;;4997289;28;20123;-81
2022/08/21 07:45:15;;;;;;;43.13;35.30;;;40.00;26.30;;;;;;5014076;28;20056;-80
2022/08/21 07:47:41;;;;;;;;;;;40.10;26.20;;;;;;5015557;28;20122;-81
2022/08/21 07:50:07;;;;;;;40.83;35.15;;;40.30;26.90;;;;;;5011837;28;20003;-82
2022/08/21 07:52:34;;;;;;;38.45;33.33;;;40.30;26.30;;;;;;5004090;28;20384;-80
2022/08/21 07:55:03;;;;;;;41.85;35.67;;;40.10;26.30;;;;;;5010467;28;20120;-82
2022/08/21 07:57:29;;;;;;;40.88;36.33;;;40.00;26.40;;;;;;4997092;28;20045;-80
2022/08/21 07:59:55;;;;;;;44.88;34.58;;;40.10;26.30;;;;;;5011703;28;20030;-79
2022/08/21 08:02:29;;;;;;;41.53;34.70;;;40.10;26.30;;;;;;5012568;28;20483;-81
2022/08/21 08:05:04;;;;;;;38.08;33.10;;;40.40;26.30;;;;;;4997080;28;21009;-80
2022/08/21 08:07:29;;;;;;;40.70;34.15;;;40.00;25.80;;;;;;4985175;28;20336;-82
2022/08/21 08:09:55;;;;;;;46.03;35.47;;;39.30;25.90;;;;;;5014460;28;20053;-79
2022/08/21 08:12:21;;;;;;;43.38;34.50;;;38.40;26.20;;;;;;5013284;28;20448;-80
2022/08/21 08:14:47;;;;;;;40.55;34.67;;;37.90;26.40;;;;;;4993514;28;20046;-81
2022/08/21 08:17:13;;;;;;;44.25;31.60;;;37.60;26.80;;;;;;5013454;28;20045;-82
2022/08/21 08:19:39;;;;;;;39.53;32.90;;;37.60;26.50;;;;;;5012974;28;20390;-81
2022/08/21 08:22:25;;;;;;;37.25;30.10;;;37.80;26.60;;;;;;5002536;28;20095;-82
2022/08/21 08:24:52;;;;;;;34.13;27.38;;;38.60;26.60;;;;;;4999439;28;20038;-81
2022/08/21 08:27:18;;;;;;;33.33;27.38;;;39.10;25.70;;;;;;5003111;28;20502;-80
2022/08/21 08:29:44;;;;;;;33.65;26.27;;;39.10;25.80;;;;;;5013982;28;20495;-81
2022/08/21 08:32:11;;;;;;;40.90;26.25;;;38.90;25.50;;;;;;5011794;28;20121;-79
2022/08/21 08:34:37;;;;;;;34.83;25.20;;;38.00;25.50;;;;;;5013654;28;20491;-80
2022/08/21 08:37:03;;;;;;;;;;;;;;;;;;5004551;28;20034;-81
2022/08/21 08:39:30;;;;;;;;;;;37.20;26.00;;;;;;5014840;28;19905;-82
2022/08/21 08:42:27;;;;;;;30.05;25.70;;;37.00;26.60;;;;;;5012204;28;20016;-81
2022/08/21 08:45:00;;;;;;;27.27;23.52;;;37.50;26.40;;;;;;5011490;28;20065;-83
2022/08/21 08:47:32;;;;;;;36.95;24.15;;;37.80;26.00;;;;;;5016854;28;20041;-83
2022/08/21 08:50:16;;;;;;;29.02;23.63;;;38.20;26.00;;;;;;5023121;28;20021;-81
2022/08/21 08:52:58;;;;;;;28.58;23.65;;;38.80;25.70;;;;;;5024596;28;20029;-81
2022/08/21 08:55:33;;;;;;;23.85;20.95;;;39.40;25.60;;;;;;5016389;28;20080;-82
2022/08/21 08:58:02;;;;;;;27.47;21.10;;;39.30;25.30;;;;;;5015952;28;20056;-82
2022/08/21 09:00:29;;;;;;;25.00;21.38;;;39.40;25.20;;;;;;5017091;28;20030;-83
2022/08/21 09:02:59;;;;;;;29.73;22.85;;;39.40;25.10;;;;;;5014544;28;20026;-84
2022/08/21 09:05:45;;;;;;;30.25;21.38;;;38.80;25.20;;;;;;5014110;28;20084;-82
2022/08/21 09:08:29;;;;;;;;;;;37.70;25.70;;;;;;5017479;28;20025;-80
2022/08/21 09:11:04;;;;;;;26.15;20.55;;;37.40;26.10;;;;;;5002114;28;19921;-80
2022/08/21 09:13:30;;;;;;;31.27;20.65;;;;;;;;;;5008963;28;20456;-82
2022/08/21 09:16:11;;;;;;;29.90;20.08;;;36.90;25.70;;;;;;5014058;28;20112;-81
2022/08/21 09:19:11;;;;;;;49.33;20.20;;;35.30;26.10;;;;;;5012774;28;20431;-81
2022/08/21 09:21:47;;;;;;;29.38;20.42;;;34.40;26.80;;;;;;5006249;28;20453;-83
2022/08/21 09:24:31;;;;;;;28.08;19.08;;;33.60;27.20;;;;;;5013754;28;20021;-86
2022/08/21 09:27:11;;;;;;;23.80;18.67;;;;;;;;;;5005472;28;20026;-81
2022/08/21 09:29:43;;;;;;;29.95;19.20;;;32.40;28.20;;;;;;5012693;28;20025;-81
2022/08/21 09:32:25;;;;;;;33.95;18.98;;;32.20;28.40;;;;;;5012969;28;20018;-80
2022/08/21 09:35:03;;;;;;;31.20;20.45;;;32.20;28.10;;;;;;5012635;28;20033;-82
2022/08/21 09:37:30;;;;;;;27.15;18.90;;;32.30;28.10;;;;;;5014122;28;20025;-83
2022/08/21 09:39:57;;;;;;;25.80;19.15;;;32.50;28.00;;;;;;4995374;28;20026;-83
2022/08/21 09:42:27;;;;;;;25.33;18.15;;;33.00;28.20;;;;;;5013305;28;20048;-84
2022/08/21 09:45:17;;;;;;;31.23;18.17;;;33.70;27.60;;;;;;5011503;28;20033;-85
2022/08/21 09:47:45;;;;;;;26.92;19.80;;;33.80;27.70;;;;;;5001565;28;20026;-83
2022/08/21 09:50:18;;;;;;;28.30;19.15;;;33.40;28.50;;;;;;5014411;28;20017;-84
2022/08/21 09:52:53;;;;;;;26.60;19.15;;;33.10;27.90;;;;;;5014293;28;20033;-83
2022/08/21 09:58:37;;;;;;;28.52;17.38;;;32.60;28.30;;;;;;4955359;29;20115;-82
2022/08/21 10:01:05;;;;;;;29.77;20.13;;;32.30;27.80;;;;;;4992682;28;20030;-82
2022/08/21 10:03:31;;;;;;;29.45;18.48;;;32.10;28.40;;;;;;4997806;28;20595;-81
2022/08/21 10:06:05;;;;;;;24.20;17.45;;;32.00;28.20;;;;;;5010932;28;20131;-83
2022/08/21 10:08:32;;;;;;;29.85;19.10;;;31.70;28.00;;;;;;5011563;28;20101;-83
2022/08/21 10:11:15;;;;;;;25.20;18.17;;;31.40;28.50;;;;;;5017966;28;20072;-84
2022/08/21 10:13:44;;;;;;;25.55;18.08;;;31.10;28.50;;;;;;5000107;28;20070;-83
2022/08/21 10:16:32;;;;;;;33.78;19.80;;;30.80;28.80;;;;;;5017899;28;20026;-82
2022/08/21 10:19:32;;;;;;;26.02;18.27;;;30.50;29.00;;;;;;4995546;28;20021;-83
2022/08/21 10:22:19;;;;;;;28.25;18.40;;;30.30;29.90;;;;;;4995762;28;20109;-85
2022/08/21 10:24:57;;;;;;;24.08;17.33;;;30.10;30.40;;;;;;5014639;28;20038;-86
2022/08/21 10:27:34;;;;;;;23.52;12.20;;;29.90;30.60;;;;;;5015768;28;20022;-83
2022/08/21 10:30:07;;;;;;;13.38;10.30;;;29.60;30.00;;;;;;5008855;28;20073;-84
2022/08/21 10:32:54;;;;;;;18.88;10.32;;;29.50;29.70;;;;;;5008846;28;20022;-83
2022/08/21 10:35:33;;;;;;;13.40;9.13;;;29.40;29.80;;;;;;5004331;28;20121;-83
2022/08/21 10:38:14;;;;;;;17.27;9.13;;;29.10;29.80;;;;;;5009907;28;20072;-83
2022/08/21 10:41:21;;;;;;;17.10;8.65;;;28.90;29.90;;;;;;5014303;28;20432;-84
2022/08/21 10:43:59;;;;;;;15.05;8.45;;;28.60;30.10;;;;;;5004267;28;20018;-81
2022/08/21 10:46:56;;;;;;;16.40;9.32;;;28.50;30.70;;;;;;4973713;28;20504;-82
2022/08/21 10:49:47;;;;;;;22.33;9.38;;;28.50;30.70;;;;;;4973208;28;20031;-83
2022/08/21 10:52:37;;;;;;;17.38;9.50;;;28.50;30.80;;;;;;4943131;28;20105;-82
2022/08/21 10:55:16;;;;;;;17.20;9.25;;;28.50;30.90;;;;;;4970534;28;20089;-82
2022/08/21 10:57:59;;;;;;;16.50;9.80;;;28.60;31.30;;;;;;4973266;28;20038;-83
2022/08/21 11:00:34;;;;;;;16.75;9.07;;;28.90;32.20;;;;;;4957313;28;20043;-84
2022/08/21 11:03:13;;;;;;;21.63;8.73;;;29.00;30.90;;;;;;4974909;28;20034;-85
2022/08/21 11:05:51;;;;;;;15.32;7.35;;;28.90;31.20;;;;;;4979791;28;20054;-82
2022/08/21 11:08:21;;;;;;;15.65;7.55;;;28.90;30.90;;;;;;4968299;28;20023;-83
2022/08/21 11:10:58;;;;;;;12.73;7.15;;;28.70;31.00;;;;;;4977189;28;20450;-84
2022/08/21 11:13:35;;;;;;;17.90;7.32;;;28.50;30.90;;;;;;4975810;28;20051;-82
2022/08/21 11:16:10;;;;;;;12.80;5.32;;;28.40;31.30;;;;;;4970187;28;20081;-80
2022/08/21 11:18:45;;;;;;;13.88;6.80;;;28.40;30.50;;;;;;4965579;28;20043;-79
2022/08/21 11:21:42;;;;;;;16.40;8.13;;;28.40;30.60;;;;;;4971465;28;20054;-80
2022/08/21 11:24:33;;;;;;;20.05;8.88;;;28.40;30.30;;;;;;4971553;28;20507;-80
2022/08/21 11:27:47;;;;;;;14.38;9.65;;;28.40;30.60;;;;;;4971273;28;20030;-80
2022/08/21 11:30:14;;;;;;;20.48;10.48;;;28.40;30.70;;;;;;4959806;28;20035;-79
2022/08/21 11:32:43;;;;;;;30.38;11.55;;;28.40;30.40;;;;;;4972600;28;20063;-82
2022/08/21 11:35:14;;;;;;;28.05;11.80;;;28.40;30.50;;;;;;4972746;28;20064;-80
2022/08/21 11:38:09;;;;;;;17.33;11.65;;;28.40;30.50;;;;;;4972316;28;20023;-80
2022/08/21 11:40:47;;;;;;;21.50;14.70;;;;;;;;;;4972232;28;20050;-82
2022/08/21 11:43:39;;;;;;;27.30;14.57;;;28.30;30.80;;;;;;4970700;28;20030;-82
2022/08/21 11:46:11;;;;;;;24.00;16.45;;;28.30;31.30;;;;;;5007481;28;20077;-80
2022/08/21 11:49:01;;;;;;;23.50;16.27;;;28.20;31.50;;;;;;5011983;28;20029;-79
2022/08/21 11:51:53;;;;;;;25.35;16.48;;;28.10;31.60;;;;;;5006620;28;20031;-81
2022/08/21 11:54:54;;;;;;;27.65;18.23;;;27.80;31.40;;;;;;5015460;28;20388;-80
2022/08/21 11:57:22;;;;;;;24.88;16.08;;;27.70;31.80;;;;;;4985522;28;20506;-80
2022/08/21 11:59:48;;;;;;;24.25;14.45;;;27.50;32.00;;;;;;5012705;28;20407;-76
2022/08/21 12:02:19;;;;;;;20.83;15.55;;;27.40;32.30;;;;;;5014918;28;20018;-81
2022/08/21 12:04:54;;;;;;;24.38;15.50;;;27.20;32.40;;;;;;5013654;28;20101;-78
2022/08/21 12:07:40;;;;;;;28.08;15.52;;;27.10;32.50;;;;;;5014709;28;20029;-81
2022/08/21 12:10:21;;;;;;;22.33;13.90;;;27.10;32.50;;;;;;4995085;28;20034;-78
2022/08/21 12:12:48;;;;;;;25.52;14.57;;;27.00;32.40;;;;;;5004479;28;20022;-80
2022/08/21 12:15:26;;;;;;;30.27;15.43;;;27.00;32.60;;;;;;5001773;28;20030;-81
2022/08/21 12:18:03;;;;;;;26.60;14.70;;;27.00;32.60;;;;;;5001646;28;20044;-80
2022/08/21 12:20:35;;;;;;;24.20;13.13;;;27.10;32.70;;;;;;5015834;28;20468;-84
2022/08/21 12:23:09;;;;;;;22.75;13.23;;;27.20;32.60;;;;;;5009696;28;20117;-83
2022/08/21 12:25:41;;;;;;;25.45;13.07;;;27.30;32.60;;;;;;5002810;28;20031;-80
2022/08/21 12:28:13;;;;;;;30.23;13.93;;;27.30;32.40;;;;;;5014574;28;20026;-81
2022/08/21 12:30:45;;;;;;;20.73;12.60;;;27.50;32.60;;;;;;5014415;28;20034;-82
2022/08/21 12:33:41;;;;;;;21.60;12.43;;;27.60;32.30;;;;;;5008605;28;20034;-81
2022/08/21 12:36:14;;;;;;;27.23;13.10;;;27.80;32.20;;;;;;4993452;28;20574;-83
2022/08/21 12:38:49;;;;;;;22.98;14.15;;;27.90;32.10;;;;;;4993564;28;20457;-81
2022/08/21 12:41:24;;;;;;;26.90;13.63;;;28.00;32.20;;;;;;5014142;28;20130;-80
2022/08/21 12:44:13;;;;;;;21.70;12.48;;;28.00;32.00;;;;;;5012995;28;20033;-84
2022/08/21 12:46:53;;;;;;;23.60;12.90;;;27.90;32.10;;;;;;4999587;28;20446;-85
2022/08/21 12:49:37;;;;;;;20.08;12.43;;;27.80;32.40;;;;;;5006463;28;20033;-84
2022/08/21 12:52:16;;;;;;;19.25;11.23;;;27.90;32.70;;;;;;5009554;28;20025;-84
2022/08/21 12:54:46;;;;;;;15.32;11.35;;;27.80;32.80;;;;;;5013877;28;20034;-81